Time;durP1;ratioP1;P1;durP2;ratioP2;P2;SDS_P1;SDS_P2;PMS_P1;PMS_P2;Temp;Humidity;BMP_temperature;BMP_pressure;BME280_temperature;BME280_humidity;BME280_pressure;Samples;Min_cycle;Max_cycle;Signal;HPM_P1;HPM_P2
2022/03/23 00:00:10;;;;;;;1999.90;999.90;;;3.10;99.90;;;;;;5091613;28;20448;-67
2022/03/23 00:02:37;;;;;;;1999.90;999.90;;;2.90;99.90;;;;;;5092105;28;20497;-69
2022/03/23 00:05:04;;;;;;;1999.90;999.90;;;2.80;99.90;;;;;;5085117;28;20484;-68
2022/03/23 00:07:33;;;;;;;1999.90;999.90;;;2.90;99.90;;;;;;5086183;28;20448;-68
2022/03/23 00:09:59;;;;;;;1999.90;999.90;;;2.80;99.90;;;;;;5085794;28;20456;-68
2022/03/23 00:12:26;;;;;;;1999.90;999.90;;;2.70;99.90;;;;;;5089692;28;20470;-68
2022/03/23 00:14:53;;;;;;;1999.90;999.90;;;2.70;99.90;;;;;;5088993;28;20518;-68
2022/03/23 00:17:20;;;;;;;1999.90;999.90;;;2.70;99.90;;;;;;5091228;28;20444;-68
2022/03/23 00:19:49;;;;;;;1999.90;999.90;;;2.70;99.90;;;;;;5091841;28;20864;-68
2022/03/23 00:22:16;;;;;;;1999.90;999.90;;;2.80;99.90;;;;;;5089752;28;20828;-68
2022/03/23 00:24:44;;;;;;;1999.90;999.90;;;2.80;99.90;;;;;;5089152;28;20477;-68
2022/03/23 00:27:10;;;;;;;1999.90;999.90;;;2.80;99.90;;;;;;5089779;28;20592;-68
2022/03/23 00:29:37;;;;;;;1999.90;999.90;;;2.80;99.90;;;;;;5095179;28;21097;-68
2022/03/23 00:32:04;;;;;;;1999.90;999.90;;;2.80;99.90;;;;;;5094692;28;20444;-68
2022/03/23 00:34:31;;;;;;;1999.90;999.90;;;2.90;99.90;;;;;;5094933;28;20479;-68
2022/03/23 00:36:58;;;;;;;1999.90;999.90;;;3.00;99.90;;;;;;5095232;28;20469;-69
2022/03/23 00:39:25;;;;;;;1999.90;999.90;;;2.90;99.90;;;;;;5095389;28;20443;-68
2022/03/23 00:41:53;;;;;;;1999.90;999.90;;;2.70;99.90;;;;;;5094526;28;20444;-68
2022/03/23 00:44:20;;;;;;;1999.90;999.90;;;2.60;99.90;;;;;;5091930;28;20488;-68
2022/03/23 00:46:46;;;;;;;1999.90;999.90;;;2.50;99.90;;;;;;5088405;28;20510;-68
2022/03/23 00:49:13;;;;;;;1999.90;999.90;;;2.40;99.90;;;;;;5089326;28;20444;-68
2022/03/23 00:51:40;;;;;;;1999.90;999.90;;;2.40;99.90;;;;;;5093907;28;20476;-68
2022/03/23 00:54:09;;;;;;;1999.90;999.90;;;2.40;99.90;;;;;;5095318;28;20440;-67
2022/03/23 00:56:36;;;;;;;1999.90;999.90;;;2.50;99.90;;;;;;5094718;28;20889;-68
2022/03/23 00:59:07;;;;;;;1999.90;999.90;;;2.60;99.90;;;;;;5094984;28;20449;-68
2022/03/23 01:01:33;;;;;;;1999.90;999.90;;;2.50;99.90;;;;;;5090408;28;20445;-66
2022/03/23 01:04:00;;;;;;;1999.90;999.90;;;2.40;99.90;;;;;;5088535;28;20518;-67
2022/03/23 01:06:27;;;;;;;1999.90;999.90;;;2.40;99.90;;;;;;5089044;28;20484;-68
2022/03/23 01:08:54;;;;;;;1999.90;999.90;;;2.40;99.90;;;;;;5087783;28;20792;-68
2022/03/23 01:11:20;;;;;;;1999.90;999.90;;;2.40;99.90;;;;;;5088702;28;20797;-67
2022/03/23 01:13:47;;;;;;;1999.90;999.90;;;2.40;99.90;;;;;;5089440;28;20458;-68
2022/03/23 01:16:16;;;;;;;1999.90;999.90;;;2.30;99.90;;;;;;5088569;28;20521;-68
2022/03/23 01:18:43;;;;;;;1999.90;999.90;;;2.20;99.90;;;;;;5089047;28;20445;-68
2022/03/23 01:21:09;;;;;;;1999.90;999.90;;;2.30;99.90;;;;;;5088049;28;20448;-67
2022/03/23 01:23:36;;;;;;;1999.90;999.90;;;2.40;99.90;;;;;;5088135;28;20455;-68
2022/03/23 01:26:04;;;;;;;1999.90;999.90;;;2.40;99.90;;;;;;5090117;28;20481;-68
2022/03/23 01:28:31;;;;;;;1999.90;999.90;;;2.40;99.90;;;;;;5093911;28;20484;-68
2022/03/23 01:30:57;;;;;;;1999.90;999.90;;;2.40;99.90;;;;;;5094049;28;21058;-68
2022/03/23 01:33:25;;;;;;;1999.90;999.90;;;2.50;99.90;;;;;;5094177;28;20452;-68
2022/03/23 01:35:52;;;;;;;1999.90;999.90;;;2.50;99.90;;;;;;5093821;28;20915;-68
2022/03/23 01:38:19;;;;;;;1999.90;999.90;;;2.40;99.90;;;;;;5093923;28;20448;-68
2022/03/23 01:40:46;;;;;;;1999.90;999.90;;;2.30;99.90;;;;;;5093868;28;20517;-68
2022/03/23 01:43:13;;;;;;;1999.90;999.90;;;2.30;99.90;;;;;;5093816;28;20544;-68
2022/03/23 01:45:39;;;;;;;1999.90;999.90;;;2.30;99.90;;;;;;5093360;28;20480;-68
2022/03/23 01:48:06;;;;;;;1999.90;999.90;;;2.30;99.90;;;;;;5090495;28;20863;-68
2022/03/23 01:50:34;;;;;;;1999.90;999.90;;;2.30;99.90;;;;;;5093053;28;21045;-68
2022/03/23 01:53:01;;;;;;;1999.90;999.90;;;2.40;99.90;;;;;;5094032;28;20494;-68
2022/03/23 01:55:27;;;;;;;1999.90;999.90;;;2.30;99.90;;;;;;5093533;28;20456;-68
2022/03/23 01:57:55;;;;;;;1999.90;999.90;;;2.40;99.90;;;;;;5093493;28;20449;-67
2022/03/23 02:00:22;;;;;;;1999.90;999.90;;;2.50;99.90;;;;;;5093165;28;20535;-67
2022/03/23 02:02:48;;;;;;;1999.90;999.90;;;2.50;99.90;;;;;;5093442;28;20517;-67
2022/03/23 02:05:16;;;;;;;1999.90;999.90;;;2.40;99.90;;;;;;5093275;28;20485;-68
2022/03/23 02:07:45;;;;;;;1999.90;999.90;;;2.40;99.90;;;;;;5089460;28;20451;-68
2022/03/23 02:10:12;;;;;;;1999.90;999.90;;;2.30;99.90;;;;;;5086988;28;20451;-66
2022/03/23 02:12:38;;;;;;;1999.90;999.90;;;2.30;99.90;;;;;;5086947;28;20464;-68
2022/03/23 02:15:13;;;;;;;1999.90;999.90;;;2.40;99.90;;;;;;5088061;28;20472;-68
2022/03/23 02:17:42;;;;;;;1999.90;999.90;;;2.30;99.90;;;;;;5087830;28;20513;-68
2022/03/23 02:20:10;;;;;;;1999.90;999.90;;;2.30;99.90;;;;;;5093397;28;20452;-66
2022/03/23 02:22:38;;;;;;;1999.90;999.90;;;2.30;99.90;;;;;;5093305;28;20457;-68
2022/03/23 02:25:06;;;;;;;1999.90;999.90;;;2.30;99.90;;;;;;5087798;28;20891;-67
2022/03/23 02:27:35;;;;;;;1999.90;999.90;;;2.30;99.90;;;;;;5087027;28;20449;-68
2022/03/23 02:30:02;;;;;;;1999.90;999.90;;;2.30;99.90;;;;;;5087828;28;20461;-68
2022/03/23 02:32:29;;;;;;;1999.90;999.90;;;2.30;99.90;;;;;;5086375;28;20449;-68
2022/03/23 02:34:55;;;;;;;1999.90;999.90;;;2.30;99.90;;;;;;5086998;28;20464;-68
2022/03/23 02:37:22;;;;;;;1999.90;999.90;;;2.30;99.90;;;;;;5091548;28;20497;-68
2022/03/23 02:39:50;;;;;;;1999.90;999.90;;;2.10;99.90;;;;;;5093314;28;20513;-68
2022/03/23 02:42:17;;;;;;;1999.90;999.90;;;2.10;99.90;;;;;;5093101;28;20448;-68
2022/03/23 02:44:44;;;;;;;1999.90;999.90;;;1.90;99.90;;;;;;5093640;28;20481;-68
2022/03/23 02:47:11;;;;;;;1999.90;999.90;;;1.80;99.90;;;;;;5093535;28;20444;-69
2022/03/23 02:49:39;;;;;;;1999.90;999.90;;;1.70;99.90;;;;;;5093566;28;20455;-69
2022/03/23 02:52:06;;;;;;;1999.90;999.90;;;1.80;99.90;;;;;;5092811;28;20539;-68
2022/03/23 03:03:13;;;;;;;1999.90;999.90;;;1.60;99.90;;;;;;5086939;28;20486;-68
2022/03/23 03:05:40;;;;;;;1999.90;999.90;;;1.60;99.90;;;;;;5087626;28;20498;-68
2022/03/23 03:10:51;;;;;;;1999.90;999.90;;;1.70;99.90;;;;;;5091942;28;20500;-68
2022/03/23 03:13:19;;;;;;;1999.90;999.90;;;1.70;99.90;;;;;;5092590;28;20452;-68
2022/03/23 03:15:45;;;;;;;1999.90;999.90;;;1.60;99.90;;;;;;5088130;28;20476;-68
2022/03/23 03:18:12;;;;;;;1999.90;999.90;;;1.50;99.90;;;;;;5086408;28;20956;-66
2022/03/23 03:20:39;;;;;;;1999.90;999.90;;;1.60;99.90;;;;;;5086734;28;20940;-68
2022/03/23 03:23:05;;;;;;;1999.90;999.90;;;1.70;99.90;;;;;;5091210;28;20505;-69
2022/03/23 03:25:32;;;;;;;1999.90;999.90;;;1.60;99.90;;;;;;5093332;28;20500;-69
2022/03/23 03:27:59;;;;;;;1999.90;999.90;;;1.50;99.90;;;;;;5093246;28;20452;-69
2022/03/23 03:30:27;;;;;;;1999.90;999.90;;;1.30;99.90;;;;;;5093524;28;20471;-68
2022/03/23 03:32:53;;;;;;;1999.90;999.90;;;1.20;99.90;;;;;;5087800;28;20457;-68
2022/03/23 03:35:20;;;;;;;1999.90;999.90;;;1.20;99.90;;;;;;5087017;28;21180;-67
2022/03/23 03:37:46;;;;;;;1999.90;999.90;;;1.40;99.90;;;;;;5092089;28;20952;-68
2022/03/23 03:40:13;;;;;;;1999.90;999.90;;;1.40;99.90;;;;;;5092882;28;20448;-67
2022/03/23 03:42:40;;;;;;;1999.90;999.90;;;1.40;99.90;;;;;;5089689;28;20444;-67
2022/03/23 03:45:08;;;;;;;1999.90;999.90;;;1.40;99.90;;;;;;5087157;28;20480;-68
2022/03/23 03:47:36;;;;;;;1999.90;999.90;;;1.40;99.90;;;;;;5090931;28;21168;-69
2022/03/23 03:50:04;;;;;;;1999.90;999.90;;;1.40;99.90;;;;;;5090067;28;20452;-68
2022/03/23 03:52:31;;;;;;;1999.90;999.90;;;1.40;99.90;;;;;;5091219;28;20456;-67
2022/03/23 03:54:57;;;;;;;1999.90;999.90;;;1.40;99.90;;;;;;5081697;28;20465;-69
2022/03/23 03:57:24;;;;;;;1999.90;999.90;;;1.40;99.90;;;;;;5077355;28;20445;-68
2022/03/23 03:59:51;;;;;;;1999.90;999.90;;;1.30;99.90;;;;;;5087931;28;20440;-68
2022/03/23 04:02:18;;;;;;;1999.90;999.90;;;1.20;99.90;;;;;;5092925;28;20441;-68
2022/03/23 04:04:46;;;;;;;1999.90;999.90;;;1.30;99.90;;;;;;5097073;28;20480;-68
2022/03/23 04:07:13;;;;;;;1999.90;999.90;;;1.30;99.90;;;;;;5096788;28;20448;-68
2022/03/23 04:09:40;;;;;;;1999.90;999.90;;;1.30;99.90;;;;;;5096033;28;20849;-69
2022/03/23 04:12:07;;;;;;;1999.90;999.90;;;1.40;99.90;;;;;;5096690;28;20440;-68
2022/03/23 04:14:34;;;;;;;1999.90;999.90;;;1.40;99.90;;;;;;5096976;28;20464;-67
2022/03/23 04:17:00;;;;;;;1999.90;999.90;;;1.40;99.90;;;;;;5096784;28;20444;-68
2022/03/23 04:19:27;;;;;;;1999.90;999.90;;;1.40;99.90;;;;;;5094524;28;20452;-68
2022/03/23 04:21:55;;;;;;;1999.90;999.90;;;1.40;99.90;;;;;;5091054;28;20505;-68
2022/03/23 04:24:22;;;;;;;1999.90;999.90;;;1.40;99.90;;;;;;5096195;28;20960;-68
2022/03/23 04:26:49;;;;;;;1999.90;999.90;;;1.50;99.90;;;;;;5096344;28;20510;-68
2022/03/23 04:29:16;;;;;;;1999.90;999.90;;;1.50;99.90;;;;;;5096374;28;20456;-68
2022/03/23 04:31:42;;;;;;;1999.90;999.90;;;1.50;99.90;;;;;;5095839;28;20456;-68
2022/03/23 04:34:09;;;;;;;1999.90;999.90;;;1.60;99.90;;;;;;5096534;28;20444;-68
2022/03/23 04:36:36;;;;;;;1999.90;999.90;;;1.60;99.90;;;;;;5096998;28;20811;-68
2022/03/23 04:39:04;;;;;;;1999.90;999.90;;;1.60;99.90;;;;;;5096091;28;20497;-68
2022/03/23 04:41:30;;;;;;;1999.90;999.90;;;1.70;99.90;;;;;;5087973;28;20456;-67
2022/03/23 04:43:57;;;;;;;1999.90;999.90;;;1.70;99.90;;;;;;5089671;28;20456;-68
2022/03/23 04:46:24;;;;;;;1999.90;999.90;;;1.70;99.90;;;;;;5089002;28;20476;-68
2022/03/23 04:48:50;;;;;;;1999.90;999.90;;;1.80;99.90;;;;;;5089990;28;20451;-67
2022/03/23 04:51:17;;;;;;;1999.90;999.90;;;1.90;99.90;;;;;;5088745;28;20470;-68
2022/03/23 04:53:44;;;;;;;1999.90;999.90;;;2.00;99.90;;;;;;5089461;28;20866;-68
2022/03/23 04:56:12;;;;;;;1999.90;999.90;;;2.00;99.90;;;;;;5089741;28;20460;-68
2022/03/23 04:58:42;;;;;;;1999.90;999.90;;;2.10;99.90;;;;;;5095435;28;20445;-69
2022/03/23 05:01:09;;;;;;;1999.90;999.90;;;2.10;99.90;;;;;;5090786;28;20833;-67
2022/03/23 05:03:36;;;;;;;1999.90;999.90;;;2.20;99.90;;;;;;5089440;28;20511;-67
2022/03/23 05:06:03;;;;;;;1999.90;999.90;;;2.20;99.90;;;;;;5091215;28;20488;-68
2022/03/23 05:08:29;;;;;;;1999.90;999.90;;;2.20;99.90;;;;;;5095157;28;20440;-68
2022/03/23 05:10:56;;;;;;;1999.90;999.90;;;2.20;99.90;;;;;;5091284;28;20457;-68
2022/03/23 05:13:24;;;;;;;1999.90;999.90;;;2.20;99.90;;;;;;5089132;28;20453;-67
2022/03/23 05:15:51;;;;;;;1999.90;999.90;;;2.10;99.90;;;;;;5088384;28;20456;-68
2022/03/23 05:18:18;;;;;;;1999.90;999.90;;;2.00;99.90;;;;;;5089165;28;20501;-68
2022/03/23 05:20:45;;;;;;;1999.90;999.90;;;2.00;99.90;;;;;;5091992;28;20521;-68
2022/03/23 05:23:11;;;;;;;1999.90;999.90;;;2.00;99.90;;;;;;5094590;28;20456;-68
2022/03/23 05:25:38;;;;;;;1999.90;999.90;;;1.90;99.90;;;;;;5095175;28;20605;-68
2022/03/23 05:28:08;;;;;;;1999.90;999.90;;;2.00;99.90;;;;;;5091315;28;20525;-68
2022/03/23 05:30:36;;;;;;;1999.90;999.90;;;2.00;99.90;;;;;;5087206;28;20484;-67
2022/03/23 05:33:04;;;;;;;1999.90;999.90;;;2.10;99.90;;;;;;5088299;28;21135;-68
2022/03/23 05:35:31;;;;;;;1999.90;999.90;;;2.10;99.90;;;;;;5088280;28;20997;-68
2022/03/23 05:37:58;;;;;;;1999.90;999.90;;;2.10;99.90;;;;;;5091084;28;20448;-68
2022/03/23 05:40:25;;;;;;;1999.90;999.90;;;2.20;99.90;;;;;;5093797;28;21286;-68
2022/03/23 05:42:52;;;;;;;1999.90;999.90;;;2.20;99.90;;;;;;5094197;28;20474;-68
2022/03/23 05:45:18;;;;;;;1999.90;999.90;;;2.20;99.90;;;;;;5093506;28;20518;-68
2022/03/23 05:47:48;;;;;;;1999.90;999.90;;;2.20;99.90;;;;;;5093986;28;20449;-68
2022/03/23 05:50:15;;;;;;;1999.90;999.90;;;2.30;99.90;;;;;;5093111;28;20480;-68
2022/03/23 05:52:42;;;;;;;1999.90;999.90;;;2.30;99.90;;;;;;5093654;28;20448;-67
2022/03/23 05:55:09;;;;;;;1999.90;999.90;;;2.40;99.90;;;;;;5093914;28;20472;-68
2022/03/23 05:57:37;;;;;;;1999.90;999.90;;;2.50;99.90;;;;;;5092577;28;20531;-68
2022/03/23 06:00:05;;;;;;;1999.90;999.90;;;2.60;99.90;;;;;;5087623;28;20457;-68
2022/03/23 06:02:31;;;;;;;1999.90;999.90;;;2.70;99.90;;;;;;5087648;28;20498;-68
2022/03/23 06:04:59;;;;;;;1999.90;999.90;;;2.80;99.90;;;;;;5090216;28;20526;-68
2022/03/23 06:07:26;;;;;;;1999.90;999.90;;;2.90;99.90;;;;;;5092971;28;20480;-68
2022/03/23 06:09:53;;;;;;;1999.90;999.90;;;3.00;99.90;;;;;;5091302;28;20456;-68
2022/03/23 06:12:21;;;;;;;1999.90;999.90;;;3.10;99.90;;;;;;5086807;28;20452;-68
2022/03/23 06:14:47;;;;;;;1999.90;999.90;;;3.20;99.90;;;;;;5087524;28;20464;-67
2022/03/23 06:17:14;;;;;;;1999.90;999.90;;;3.40;99.90;;;;;;5087835;28;20468;-67
2022/03/23 06:19:41;;;;;;;1999.90;999.90;;;3.40;99.90;;;;;;5087939;28;20441;-67
2022/03/23 06:22:09;;;;;;;1999.90;999.90;;;3.50;99.90;;;;;;5086622;28;20453;-69
2022/03/23 06:24:36;;;;;;;1999.90;999.90;;;3.60;99.90;;;;;;5087657;28;20535;-67
2022/03/23 06:27:02;;;;;;;1999.90;999.90;;;3.70;99.90;;;;;;5091511;28;20987;-68
2022/03/23 06:29:29;;;;;;;1999.90;999.90;;;3.80;99.90;;;;;;5093438;28;20440;-68
2022/03/23 06:31:56;;;;;;;1999.90;999.90;;;3.90;99.90;;;;;;5092602;28;20518;-68
2022/03/23 06:34:23;;;;;;;1999.90;999.90;;;4.00;99.90;;;;;;5093338;28;20497;-68
2022/03/23 06:36:49;;;;;;;1999.90;999.90;;;4.10;99.90;;;;;;5088538;28;20941;-66
2022/03/23 06:39:17;;;;;;;1999.90;999.90;;;4.20;99.90;;;;;;5091793;28;20440;-68
2022/03/23 06:41:44;;;;;;;1999.90;999.90;;;4.40;99.90;;;;;;5096816;28;20867;-68
2022/03/23 06:44:11;;;;;;;1999.90;999.90;;;4.50;99.90;;;;;;5097688;28;20470;-67
2022/03/23 06:46:38;;;;;;;1999.90;999.90;;;4.70;99.90;;;;;;5091470;28;20480;-69
2022/03/23 06:49:06;;;;;;;1999.90;999.90;;;4.90;99.90;;;;;;5086262;28;20444;-70
2022/03/23 06:51:33;;;;;;;1999.90;999.90;;;5.10;99.90;;;;;;5086857;28;20460;-70
2022/03/23 06:53:59;;;;;;;1999.90;999.90;;;5.30;99.90;;;;;;5087220;28;20509;-70
2022/03/23 06:56:27;;;;;;;1999.90;999.90;;;5.50;99.90;;;;;;5091777;28;20468;-71
2022/03/23 06:58:54;;;;;;;1999.90;999.90;;;5.80;99.90;;;;;;5092770;28;20502;-70
2022/03/23 07:01:20;;;;;;;1999.90;999.90;;;6.00;99.90;;;;;;5092623;28;20503;-71
2022/03/23 07:03:48;;;;;;;1999.90;999.90;;;6.40;99.90;;;;;;5088297;28;20493;-70
2022/03/23 07:06:15;;;;;;;1999.90;999.90;;;6.60;99.90;;;;;;5086425;28;20565;-70
2022/03/23 07:11:28;;;;;;;1999.90;999.90;;;7.40;99.90;;;;;;5085872;28;20440;-69
2022/03/23 07:13:54;;;;;;;1999.90;999.90;;;7.70;99.90;;;;;;5085649;28;20449;-68
2022/03/23 07:16:21;;;;;;;1999.90;999.90;;;8.20;99.90;;;;;;5090636;28;20471;-68
2022/03/23 07:18:48;;;;;;;1999.90;999.90;;;8.60;98.40;;;;;;5092514;28;20444;-68
2022/03/23 07:21:14;;;;;;;1999.90;999.90;;;8.80;97.20;;;;;;5091804;28;21001;-68
2022/03/23 07:23:41;;;;;;;1999.90;999.90;;;9.10;97.20;;;;;;5088188;28;20453;-68
2022/03/23 07:26:08;;;;;;;1999.90;999.90;;;9.30;96.00;;;;;;5085827;28;20506;-66
2022/03/23 07:28:36;;;;;;;1999.90;999.90;;;9.30;95.30;;;;;;5085756;28;20470;-68
2022/03/23 07:31:03;;;;;;;1999.90;999.90;;;9.60;95.70;;;;;;5085622;28;20441;-67
2022/03/23 07:33:30;;;;;;;1999.90;999.90;;;9.70;94.80;;;;;;5086228;28;20502;-68
2022/03/23 07:35:56;;;;;;;1999.90;999.90;;;9.90;94.60;;;;;;5085745;28;21081;-67
2022/03/23 07:38:23;;;;;;;1999.90;999.90;;;10.30;93.70;;;;;;5088281;28;20533;-68
2022/03/23 07:40:50;;;;;;;1999.90;999.90;;;10.50;93.20;;;;;;5092080;28;20471;-68
2022/03/23 07:43:16;;;;;;;1999.90;999.90;;;10.70;92.80;;;;;;5092780;28;20936;-68
2022/03/23 07:45:44;;;;;;;1999.90;999.90;;;11.00;92.10;;;;;;5086084;28;20468;-68
2022/03/23 07:48:11;;;;;;;1999.90;999.90;;;10.90;91.90;;;;;;5093350;28;20480;-68
2022/03/23 07:50:37;;;;;;;1999.90;999.90;;;11.00;91.60;;;;;;5092713;28;20444;-68
2022/03/23 07:53:04;;;;;;;1999.90;999.90;;;11.30;92.10;;;;;;5093375;28;20989;-68
2022/03/23 07:55:31;;;;;;;1999.90;999.90;;;11.50;91.90;;;;;;5094248;28;20964;-68
2022/03/23 07:57:57;;;;;;;1999.90;999.90;;;11.80;91.80;;;;;;5094234;28;20445;-69
2022/03/23 08:00:24;;;;;;;1999.90;999.90;;;12.10;91.50;;;;;;5092366;28;20457;-68
2022/03/23 08:02:52;;;;;;;1999.90;999.90;;;12.30;90.90;;;;;;5083190;28;20452;-68
2022/03/23 08:05:19;;;;;;;1999.90;999.90;;;12.40;90.90;;;;;;5093883;28;21188;-68
2022/03/23 08:07:46;;;;;;;1999.90;999.90;;;12.40;90.70;;;;;;5090058;28;20529;-68
2022/03/23 08:10:12;;;;;;;1999.90;999.90;;;12.30;90.40;;;;;;5092273;28;20441;-67
2022/03/23 08:12:39;;;;;;;1999.90;999.90;;;12.20;90.10;;;;;;5093362;28;20518;-68
2022/03/23 08:15:08;;;;;;;1999.90;999.90;;;12.30;90.30;;;;;;5093843;28;20469;-68
2022/03/23 08:17:38;;;;;;;1999.90;999.90;;;12.50;90.90;;;;;;5093277;28;20540;-68
2022/03/23 08:22:52;;;;;;;1999.90;999.90;;;13.20;89.90;;;;;;5093216;28;20463;-67
2022/03/23 08:25:19;;;;;;;1999.90;999.90;;;13.20;88.30;;;;;;5089655;28;20567;-68
2022/03/23 08:27:45;;;;;;;1999.90;999.90;;;13.10;89.70;;;;;;5092252;28;20484;-67
2022/03/23 08:30:13;;;;;;;1999.90;999.90;;;13.10;90.40;;;;;;5092571;28;20874;-66
2022/03/23 08:32:39;;;;;;;1999.90;999.90;;;13.20;90.90;;;;;;5096425;28;20815;-68
2022/03/23 08:35:08;;;;;;;1999.90;999.90;;;13.40;90.70;;;;;;5116670;28;20459;-69
2022/03/23 08:37:35;;;;;;;1999.90;999.90;;;13.70;87.10;;;;;;5117114;28;20964;-68
2022/03/23 08:40:02;;;;;;;1999.90;999.90;;;13.60;85.70;;;;;;5097081;28;20451;-69
2022/03/23 08:42:28;;;;;;;1999.90;999.90;;;13.40;87.90;;;;;;5092439;28;20445;-68
2022/03/23 08:44:55;;;;;;;1999.90;999.90;;;13.50;87.80;;;;;;5110863;28;20468;-69
2022/03/23 08:47:22;;;;;;;1999.90;999.90;;;13.70;87.60;;;;;;5096734;28;20484;-68
2022/03/23 08:49:49;;;;;;;1999.90;999.90;;;13.80;85.90;;;;;;5094741;28;20452;-68
2022/03/23 08:52:17;;;;;;;1999.90;999.90;;;14.00;85.20;;;;;;5095082;28;20456;-68
2022/03/23 08:54:44;;;;;;;1999.90;999.90;;;14.00;84.90;;;;;;5095302;28;20636;-69
2022/03/23 08:57:11;;;;;;;1999.90;999.90;;;14.10;86.40;;;;;;5094655;28;20517;-68
2022/03/23 08:59:37;;;;;;;1999.90;999.90;;;14.40;83.80;;;;;;5095160;28;20572;-69
2022/03/23 09:02:04;;;;;;;1999.90;999.90;;;14.60;82.80;;;;;;5094780;28;20448;-68
2022/03/23 09:04:31;;;;;;;1999.90;999.90;;;14.70;82.20;;;;;;5094329;28;20960;-68
2022/03/23 09:06:57;;;;;;;1999.90;999.90;;;15.00;81.50;;;;;;5094711;28;20476;-68
2022/03/23 09:09:25;;;;;;;1999.90;999.90;;;15.10;80.40;;;;;;5094008;28;20452;-67
2022/03/23 09:11:52;;;;;;;1999.90;999.90;;;15.10;82.20;;;;;;5094102;28;20501;-68
2022/03/23 09:14:19;;;;;;;1999.90;999.90;;;15.10;79.70;;;;;;5094617;28;20444;-67
2022/03/23 09:16:45;;;;;;;1999.90;999.90;;;15.30;77.70;;;;;;5094070;28;20975;-68
2022/03/23 09:19:14;;;;;;;1999.90;999.90;;;15.30;77.20;;;;;;5094324;28;20881;-69
2022/03/23 09:21:41;;;;;;;1999.90;999.90;;;15.30;77.40;;;;;;5094207;28;20517;-68
2022/03/23 09:24:11;;;;;;;1999.90;999.90;;;15.40;77.40;;;;;;5094513;28;20448;-68
2022/03/23 09:26:39;;;;;;;1999.90;999.90;;;15.60;73.00;;;;;;5093826;28;20460;-68
2022/03/23 09:29:07;;;;;;;1999.90;999.90;;;15.70;70.30;;;;;;5093921;28;20448;-67
2022/03/23 09:31:34;;;;;;;1999.90;999.90;;;15.70;69.60;;;;;;5094228;28;20460;-68
2022/03/23 09:34:02;;;;;;;1999.90;999.90;;;15.70;71.20;;;;;;5094285;28;20449;-67
2022/03/23 09:39:13;;;;;;;1999.90;999.90;;;15.70;71.00;;;;;;5093655;28;20451;-67
2022/03/23 09:41:43;;;;;;;1999.90;999.90;;;15.80;68.10;;;;;;5093531;28;20502;-68
2022/03/23 09:44:11;;;;;;;1999.90;999.90;;;16.00;65.80;;;;;;5093837;28;20448;-68
2022/03/23 09:46:37;;;;;;;1999.90;999.90;;;16.00;61.50;;;;;;5093805;28;20837;-68
2022/03/23 09:49:06;;;;;;;1999.90;999.90;;;16.00;63.70;;;;;;5093684;28;20960;-68
2022/03/23 09:51:34;;;;;;;1999.90;999.90;;;15.90;66.30;;;;;;5092677;28;20440;-68
2022/03/23 09:54:01;;;;;;;1999.90;999.90;;;15.90;68.20;;;;;;5093832;28;20449;-68
2022/03/23 09:56:28;;;;;;;1999.90;999.90;;;16.10;62.60;;;;;;5093621;28;21000;-68
2022/03/23 09:58:56;;;;;;;1999.90;999.90;;;16.20;66.00;;;;;;5092913;28;20513;-67
2022/03/23 10:02:10;;;;;;;1999.90;999.90;;;16.30;66.70;;;;;;5092608;28;20814;-68
2022/03/23 10:05:17;;;;;;;1999.90;999.90;;;16.40;64.70;;;;;;5093783;28;20471;-69
2022/03/23 10:07:52;;;;;;;1999.90;999.90;;;16.50;64.10;;;;;;5093468;28;20836;-68
2022/03/23 10:11:14;;;;;;;1999.90;999.90;;;16.60;64.00;;;;;;5092531;28;20459;-67
2022/03/23 10:15:01;;;;;;;1999.90;999.90;;;16.40;63.80;;;;;;5093699;28;20433;-68
2022/03/23 10:17:54;;;;;;;1999.90;999.90;;;16.70;64.00;;;;;;5093886;28;20453;-69
2022/03/23 10:20:20;;;;;;;1999.90;999.90;;;16.70;62.40;;;;;;5086612;28;20952;-67
2022/03/23 10:22:48;;;;;;;1999.90;999.90;;;16.90;60.60;;;;;;5094038;28;20517;-68
2022/03/23 10:25:16;;;;;;;1999.90;999.90;;;17.00;63.40;;;;;;5094114;28;20525;-69
2022/03/23 10:27:44;;;;;;;1999.90;999.90;;;17.10;65.50;;;;;;5095069;28;20476;-68
2022/03/23 10:30:14;;;;;;;1999.90;999.90;;;17.30;66.60;;;;;;5094969;28;20912;-67
2022/03/23 10:32:42;;;;;;;1999.90;999.90;;;17.20;63.10;;;;;;5094850;28;20936;-68
2022/03/23 10:35:13;;;;;;;1999.90;999.90;;;17.10;60.20;;;;;;5094343;28;20547;-68
2022/03/23 10:37:40;;;;;;;1999.90;999.90;;;17.10;60.10;;;;;;5093899;28;20498;-69
2022/03/23 10:40:10;;;;;;;1999.90;999.90;;;17.10;62.40;;;;;;5095240;28;20443;-67
2022/03/23 10:42:40;;;;;;;1999.90;999.90;;;17.20;62.60;;;;;;5096534;28;20447;-68
2022/03/23 10:45:09;;;;;;;1999.90;999.90;;;17.40;59.00;;;;;;5095755;28;20469;-69
2022/03/23 10:47:39;;;;;;;1999.90;999.90;;;17.70;58.10;;;;;;5095685;28;20510;-69
2022/03/23 10:50:12;;;;;;;1999.90;999.90;;;17.60;57.50;;;;;;5094880;28;20452;-67
2022/03/23 10:52:52;;;;;;;1999.90;999.90;;;17.50;56.20;;;;;;5093388;28;20514;-68
2022/03/23 10:55:20;;;;;;;1999.90;999.90;;;17.40;58.20;;;;;;5093631;28;20499;-69
2022/03/23 10:58:14;;;;;;;1999.90;999.90;;;17.50;58.30;;;;;;5095373;28;20444;-69
2022/03/23 11:00:41;;;;;;;1999.90;999.90;;;17.50;57.50;;;;;;5075338;28;20954;-68
2022/03/23 11:03:10;;;;;;;1999.90;999.90;;;17.60;56.80;;;;;;5074423;28;20472;-68
2022/03/23 11:05:38;;;;;;;1999.90;999.90;;;17.50;54.60;;;;;;5073330;28;20495;-69
2022/03/23 11:08:08;;;;;;;1999.90;999.90;;;17.50;55.00;;;;;;5089929;28;20476;-68
2022/03/23 11:16:08;;;;;;;1999.90;999.90;;;17.50;57.70;;;;;;5092307;28;20993;-71
2022/03/23 11:18:36;;;;;;;1999.90;999.90;;;17.80;56.10;;;;;;5092163;28;20448;-71
2022/03/23 11:21:03;;;;;;;1999.90;999.90;;;17.80;56.70;;;;;;5091647;28;20493;-71
2022/03/23 11:23:33;;;;;;;1999.90;999.90;;;17.70;58.70;;;;;;5091012;28;20448;-71
2022/03/23 11:26:02;;;;;;;1999.90;999.90;;;17.80;59.40;;;;;;5093194;28;20476;-72
2022/03/23 11:28:31;;;;;;;1999.90;999.90;;;17.90;58.70;;;;;;5092215;28;20484;-72
2022/03/23 11:30:58;;;;;;;1999.90;999.90;;;18.00;58.90;;;;;;5091761;28;20451;-72
2022/03/23 11:33:26;;;;;;;1999.90;999.90;;;18.20;55.90;;;;;;5092212;28;20478;-72
2022/03/23 11:35:54;;;;;;;1999.90;999.90;;;18.40;55.10;;;;;;5091473;28;20526;-71
2022/03/23 11:38:23;;;;;;;1999.90;999.90;;;18.40;52.90;;;;;;5091665;28;20437;-71
2022/03/23 11:40:52;;;;;;;1999.90;999.90;;;18.10;53.20;;;;;;5090976;28;20455;-72
2022/03/23 11:43:21;;;;;;;1999.90;999.90;;;18.00;52.50;;;;;;5091769;28;20817;-72
2022/03/23 11:45:50;;;;;;;1999.90;999.90;;;17.90;51.20;;;;;;5071984;28;20519;-72
2022/03/23 11:48:35;;;;;;;1999.90;999.90;;;18.00;53.60;;;;;;5075905;28;20484;-73
2022/03/23 11:51:20;;;;;;;1999.90;999.90;;;18.20;52.50;;;;;;5071966;28;20524;-71
2022/03/23 11:54:03;;;;;;;1999.90;999.90;;;18.30;51.00;;;;;;5077832;28;20452;-71
2022/03/23 11:56:40;;;;;;;1999.90;999.90;;;18.40;50.50;;;;;;5099942;28;20509;-72
2022/03/23 11:59:21;;;;;;;1999.90;999.90;;;18.50;51.50;;;;;;5091727;28;20815;-72
2022/03/23 12:01:50;;;;;;;1999.90;999.90;;;18.60;47.70;;;;;;5100858;28;20448;-74
2022/03/23 12:04:18;;;;;;;1999.90;999.90;;;18.70;47.20;;;;;;5092913;28;20471;-73
2022/03/23 12:06:56;;;;;;;1999.90;999.90;;;18.50;49.90;;;;;;5093206;28;20460;-72
2022/03/23 12:09:34;;;;;;;1999.90;999.90;;;18.60;48.10;;;;;;5094044;28;20487;-70
2022/03/23 12:12:01;;;;;;;1999.90;999.90;;;18.70;46.40;;;;;;5095267;28;20440;-73
2022/03/23 12:14:30;;;;;;;1999.90;999.90;;;18.70;46.90;;;;;;5100731;28;20500;-72
2022/03/23 12:17:10;;;;;;;1999.90;999.90;;;18.70;46.30;;;;;;5093500;28;20494;-73
2022/03/23 12:20:12;;;;;;;1999.90;999.90;;;18.50;46.00;;;;;;5108989;28;20447;-73
2022/03/23 12:23:03;;;;;;;1999.90;999.90;;;18.30;44.60;;;;;;5095811;28;20443;-71
2022/03/23 12:25:35;;;;;;;1999.90;999.90;;;18.20;45.50;;;;;;5094856;28;20479;-69
2022/03/23 12:28:17;;;;;;;1999.90;999.90;;;18.10;45.70;;;;;;5095787;28;20525;-69
2022/03/23 12:31:00;;;;;;;1999.90;999.90;;;18.10;45.90;;;;;;5095817;28;20444;-71
2022/03/23 12:33:28;;;;;;;1999.90;999.90;;;18.20;47.90;;;;;;5119820;28;20428;-69
2022/03/23 12:36:00;;;;;;;1999.90;999.90;;;18.30;50.70;;;;;;5108907;28;20460;-70